Ao Nang, Thailand

9:04 AM +07 on September 26, 2017 (GMT +0700)
Ao Nang Weather Station | | Change Station

Elev 177 ft 8.05 °N, 98.84 °E | Updated 24 seconds ago

Clear
Clear
79.9 °F
Feels Like 86 °F
N
3.1
Wind Variable Wind from SSE
Gusts 4.0 mph

Today
High -- | Low -- °F
--% Chance of Precip.
Yesterday
High -- | Low -- °F
Precip. -- in
Pressure 29.89 in
Visibility 5.0 miles
Clouds Few 1600 ft
Mostly Cloudy 10000 ft
Heat Index 86 °F
Dew Point 78 °F
Humidity 93%
Rainfall 0.25 in
Snow Depth Not available.
6:13 AM 6:18 PM
Waxing Crescent, 31% visible
METAR VTSP 260130Z 26009KT 220V280 8000 FEW016 BKN100 29/25 Q1012 NOSIG
Pressure 29.89 in
Visibility 5.0 miles
Clouds Few 1600 ft
Mostly Cloudy 10000 ft
Heat Index 86 °F
Dew Point 78 °F
Humidity 93%
Rainfall 0.25 in
Snow Depth Not available.
6:13 AM 6:18 PM
Waxing Crescent, 31% visible
METAR VTSP 260130Z 26009KT 220V280 8000 FEW016 BKN100 29/25 Q1012 NOSIG

Get Severe Weather Alerts

Thanks for signing up!

Be on the lookout for a verification email in your inbox.

You'll start receiving the daily forecast at 6 AM.

×

10-Day Weather Forecast

No radar image for this location.
×

Almanac

Astronomy

Sep. 26, 2017 Rise Set
Actual Time
Civil Twilight
Nautical Twilight
Astronomical Twilight
Moon
Length of Visible Light
Length of Day
Tomorrow will be .
, % of the Moon is Illuminated

Today's Extremes

Country Highs Country Lows

Community

WunderPhotos

Category 6

Welcome to Category 6. This is the collective home for Weather Underground's featured writeups by Dr. Jeff Masters (right), Bob Henson (left), Chris Burt, and other regular contributors.

Nearby

Air Quality

  Air Quality AQ Index Pollutant
Not available.

Snow Depth

Station Depth Elevation

Earthquake Activity

City Distance Mag. Time & Date
Minimum magnitude displayed is 2.5.

Coastal Water Temperatures

Place Temperature

Stations

Nearby Weather Stations

Station Location Temp. Windchill Dew Point Humidity Wind Precip. Elev Updated Type